Time;durP1;ratioP1;P1;durP2;ratioP2;P2;SDS_P1;SDS_P2;PMS_P1;PMS_P2;Temp;Humidity;BMP_temperature;BMP_pressure;BME280_temperature;BME280_humidity;BME280_pressure;Samples;Min_cycle;Max_cycle;Signal;HPM_P1;HPM_P2
2022/10/26 03:07:44;;;;;;;2.80;2.60;;;;;;;6.46;100.00;99678.00;6069638;23;20272;-82
2022/10/26 03:10:11;;;;;;;3.33;2.50;;;;;;;6.41;100.00;99673.25;6054121;23;20291;-82
2022/10/26 03:12:38;;;;;;;2.87;2.60;;;;;;;6.49;100.00;99681.09;6054358;23;20208;-81
2022/10/26 03:15:05;;;;;;;3.17;2.80;;;;;;;6.47;100.00;99672.50;6054983;23;20205;-81
2022/10/26 03:17:32;;;;;;;3.00;2.70;;;;;;;6.41;100.00;99677.75;6010153;23;20268;-82
2022/10/26 03:19:59;;;;;;;3.63;2.90;;;;;;;6.35;100.00;99674.00;6039043;23;20252;-82
2022/10/26 03:22:26;;;;;;;2.97;2.63;;;;;;;6.34;100.00;99682.19;6036545;23;20244;-82
2022/10/26 03:24:53;;;;;;;4.00;2.70;;;;;;;6.33;100.00;99680.56;6059466;23;20216;-82
2022/10/26 03:27:20;;;;;;;3.00;2.70;;;;;;;6.29;100.00;99677.44;6008198;23;20538;-82
2022/10/26 03:29:47;;;;;;;3.67;2.57;;;;;;;6.27;100.00;99686.63;6071125;23;20936;-81
2022/10/26 03:32:14;;;;;;;6.07;2.70;;;;;;;6.20;100.00;99676.72;6044968;23;20215;-81
2022/10/26 03:34:40;;;;;;;3.77;2.90;;;;;;;6.23;100.00;99682.69;6069661;23;20213;-80
2022/10/26 03:37:07;;;;;;;3.40;2.70;;;;;;;6.25;100.00;99681.50;6072763;23;20228;-81
2022/10/26 03:39:33;;;;;;;4.30;2.87;;;;;;;6.28;100.00;99682.97;6048836;23;20263;-81
2022/10/26 03:42:01;;;;;;;3.73;2.63;;;;;;;6.23;100.00;99678.22;6070398;23;20264;-80
2022/10/26 03:44:27;;;;;;;2.90;2.70;;;;;;;6.20;100.00;99674.06;6070972;23;20201;-80
2022/10/26 03:46:54;;;;;;;3.80;3.00;;;;;;;6.19;100.00;99677.78;6071971;23;20205;-81
2022/10/26 03:49:20;;;;;;;3.13;2.70;;;;;;;6.17;100.00;99674.47;6070226;23;20692;-81
2022/10/26 03:51:47;;;;;;;3.30;2.73;;;;;;;6.18;100.00;99673.47;6069863;23;20212;-80
2022/10/26 03:54:14;;;;;;;2.63;2.43;;;;;;;6.19;100.00;99679.59;6067702;23;20234;-80
2022/10/26 03:56:40;;;;;;;3.80;2.50;;;;;;;6.16;100.00;99664.84;6044632;23;20596;-81
2022/10/26 03:59:07;;;;;;;4.37;2.60;;;;;;;6.12;100.00;99668.88;6069892;23;20212;-81
2022/10/26 04:01:33;;;;;;;2.80;2.50;;;;;;;6.12;100.00;99668.06;6071024;23;20216;-80
2022/10/26 04:04:00;;;;;;;2.80;2.50;;;;;;;6.10;100.00;99665.63;6069430;23;20212;-80
2022/10/26 04:06:26;;;;;;;3.67;2.57;;;;;;;6.10;100.00;99662.13;6043947;23;20208;-80
2022/10/26 04:08:57;;;;;;;3.53;2.63;;;;;;;6.19;100.00;99668.97;6068912;23;20263;-80
2022/10/26 04:11:23;;;;;;;3.17;2.50;;;;;;;6.13;100.00;99667.06;6069305;23;20213;-80
2022/10/26 04:13:50;;;;;;;2.87;2.53;;;;;;;6.11;100.00;99674.41;6068761;23;20260;-80
2022/10/26 04:16:16;;;;;;;3.83;2.60;;;;;;;6.12;100.00;99676.88;6068638;23;20216;-79
2022/10/26 04:18:43;;;;;;;2.73;2.50;;;;;;;6.15;100.00;99681.81;6069393;23;20212;-80
2022/10/26 04:21:09;;;;;;;3.50;3.20;;;;;;;6.09;100.00;99671.94;6069380;23;20213;-79
2022/10/26 04:23:36;;;;;;;3.97;3.60;;;;;;;6.14;100.00;99680.19;6070058;23;20219;-79
2022/10/26 04:26:05;;;;;;;4.33;3.93;;;;;;;6.20;100.00;99670.63;6068362;23;20212;-80
2022/10/26 04:28:32;;;;;;;4.93;4.47;;;;;;;6.29;100.00;99674.78;6068740;23;20209;-80
2022/10/26 04:30:59;;;;;;;5.43;4.93;;;;;;;6.34;100.00;99672.38;6068695;23;20212;-80
2022/10/26 04:33:26;;;;;;;4.90;4.40;;;;;;;6.43;100.00;99676.56;6069125;23;20213;-79
2022/10/26 04:35:57;;;;;;;4.97;4.47;;;;;;;6.48;100.00;99673.31;6068736;23;20685;-80
2022/10/26 04:38:24;;;;;;;3.70;3.40;;;;;;;6.50;100.00;99672.09;6068910;23;20200;-79
2022/10/26 04:40:51;;;;;;;3.53;3.23;;;;;;;6.58;100.00;99671.13;6068937;23;20258;-80
2022/10/26 04:43:17;;;;;;;4.37;3.97;;;;;;;6.70;100.00;99666.09;6069662;23;20215;-80
2022/10/26 04:45:44;;;;;;;5.13;3.87;;;;;;;6.72;100.00;99658.78;6068926;23;20220;-80
2022/10/26 04:48:12;;;;;;;4.57;3.93;;;;;;;6.70;100.00;99669.59;6068292;23;20230;-80
2022/10/26 04:50:39;;;;;;;4.40;3.70;;;;;;;6.74;100.00;99668.19;6068330;23;20209;-80
2022/10/26 04:53:07;;;;;;;4.57;4.17;;;;;;;6.86;100.00;99679.16;6068422;23;20213;-80
2022/10/26 04:55:34;;;;;;;7.60;3.80;;;;;;;6.88;100.00;99677.09;6043112;23;20208;-79
2022/10/26 04:58:01;;;;;;;4.20;3.80;;;;;;;6.97;100.00;99679.41;6067905;23;20224;-79
2022/10/26 05:00:29;;;;;;;5.10;3.53;;;;;;;7.00;100.00;99673.69;6043630;23;20218;-80
2022/10/26 05:03:06;;;;;;;4.13;3.83;;;;;;;7.07;100.00;99674.56;6043570;23;20220;-80
2022/10/26 05:05:34;;;;;;;4.53;4.13;;;;;;;7.15;100.00;99678.06;6068689;23;20239;-80
2022/10/26 05:08:01;;;;;;;5.13;4.33;;;;;;;7.18;100.00;99677.69;6037423;23;20598;-80
2022/10/26 05:10:28;;;;;;;4.10;3.80;;;;;;;7.28;100.00;99672.84;6039121;23;20292;-79
2022/10/26 05:12:56;;;;;;;4.97;4.00;;;;;;;7.33;100.00;99679.19;6039341;23;20697;-80
2022/10/26 05:15:23;;;;;;;3.93;3.53;;;;;;;7.37;100.00;99679.66;6044915;23;20213;-81
2022/10/26 05:17:57;;;;;;;4.47;3.70;;;;;;;7.44;100.00;99680.50;6046691;23;20585;-82
2022/10/26 05:20:29;;;;;;;4.07;3.50;;;;;;;7.43;100.00;99673.50;6046980;23;20263;-81
2022/10/26 05:22:57;;;;;;;4.10;3.70;;;;;;;7.54;100.00;99686.28;6047482;23;20209;-82
2022/10/26 05:25:24;;;;;;;3.80;3.50;;;;;;;7.61;100.00;99692.47;6047274;23;20655;-81
2022/10/26 05:27:51;;;;;;;3.87;3.33;;;;;;;7.59;100.00;99683.03;6051123;23;20213;-82
2022/10/26 05:30:21;;;;;;;3.97;3.67;;;;;;;7.53;100.00;99676.63;6050483;23;20209;-82
2022/10/26 05:32:53;;;;;;;4.50;3.63;;;;;;;7.63;100.00;99685.09;6050001;23;20217;-81
2022/10/26 05:35:20;;;;;;;3.90;3.47;;;;;;;7.58;100.00;99678.72;6072433;23;20244;-82
2022/10/26 05:37:46;;;;;;;4.47;3.60;;;;;;;7.67;100.00;99697.00;6050771;23;20214;-82
2022/10/26 05:40:14;;;;;;;5.63;3.70;;;;;;;7.76;100.00;99697.66;6048385;23;20280;-82
2022/10/26 05:42:40;;;;;;;3.30;3.00;;;;;;;7.83;100.00;99710.00;6049172;23;20205;-80
2022/10/26 05:45:07;;;;;;;4.00;3.00;;;;;;;7.94;100.00;99713.91;6063756;23;20220;-80
2022/10/26 05:47:38;;;;;;;6.77;3.03;;;;;;;8.04;100.00;99726.88;6041245;23;20682;-79
2022/10/26 05:50:05;;;;;;;4.83;3.10;;;;;;;8.15;100.00;99728.97;6055835;23;20205;-84
2022/10/26 05:52:42;;;;;;;4.03;3.20;;;;;;;8.29;100.00;99738.66;6048513;23;20224;-81
2022/10/26 05:55:13;;;;;;;3.60;3.27;;;;;;;8.37;100.00;99736.66;6057829;23;20256;-83
2022/10/26 05:58:19;;;;;;;3.20;2.90;;;;;;;8.58;100.00;99733.00;6070919;23;20233;-84
2022/10/26 06:05:23;;;;;;;3.27;2.83;;;;;;;8.83;100.00;99731.34;6051427;23;20160;-83
2022/10/26 06:07:49;;;;;;;5.30;3.17;;;;;;;8.91;100.00;99738.34;6038308;23;20217;-82
2022/10/26 06:10:17;;;;;;;3.37;3.07;;;;;;;9.00;100.00;99746.97;6050689;23;20214;-81
2022/10/26 06:12:44;;;;;;;3.60;3.30;;;;;;;9.03;100.00;99742.03;6051917;23;20232;-81
2022/10/26 06:15:18;;;;;;;4.67;3.57;;;;;;;9.09;100.00;99737.72;6049735;23;20210;-81
2022/10/26 06:18:03;;;;;;;4.30;3.90;;;;;;;9.21;100.00;99742.22;6052756;23;20214;-81
2022/10/26 06:20:33;;;;;;;5.20;4.20;;;;;;;9.31;100.00;99747.13;6052403;23;20205;-81
2022/10/26 06:23:06;;;;;;;5.53;4.00;;;;;;;9.29;100.00;99747.34;6051929;23;20209;-82
2022/10/26 06:25:48;;;;;;;4.20;3.80;;;;;;;9.39;100.00;99740.72;6054715;23;20217;-82
2022/10/26 06:28:28;;;;;;;5.90;3.73;;;;;;;9.54;100.00;99754.69;6059492;23;20165;-82
2022/10/26 06:30:56;;;;;;;4.07;3.40;;;;;;;9.61;100.00;99756.31;6036095;23;20150;-82
2022/10/26 06:33:23;;;;;;;3.53;3.10;;;;;;;9.68;100.00;99751.78;6060768;23;20181;-82
2022/10/26 06:36:04;;;;;;;4.17;3.40;;;;;;;9.88;100.00;99770.44;6057945;23;20162;-83
2022/10/26 06:38:33;;;;;;;6.03;3.90;;;;;;;9.98;100.00;99778.84;6054050;23;20198;-82
2022/10/26 06:41:00;;;;;;;7.10;4.10;;;;;;;10.12;100.00;99790.31;6052851;23;20172;-83
2022/10/26 06:43:30;;;;;;;6.47;3.57;;;;;;;10.17;100.00;99782.50;6048942;23;20180;-83
2022/10/26 06:46:09;;;;;;;5.13;3.17;;;;;;;10.31;100.00;99785.94;6049593;23;20178;-83
2022/10/26 06:48:57;;;;;;;7.13;3.40;;;;;;;10.36;100.00;99786.91;6028500;23;20209;-83
2022/10/26 06:51:24;;;;;;;4.07;3.00;;;;;;;10.38;100.00;99774.16;6051923;23;20177;-83
2022/10/26 06:54:09;;;;;;;5.30;3.33;;;;;;;10.30;100.00;99781.63;6054993;23;20169;-82
2022/10/26 06:56:37;;;;;;;6.27;3.10;;;;;;;10.36;100.00;99770.84;6057366;23;20161;-83
2022/10/26 06:59:08;;;;;;;5.33;3.80;;;;;;;10.56;100.00;99776.09;6054498;23;20614;-83
2022/10/26 07:01:34;;;;;;;8.17;4.50;;;;;;;10.59;100.00;99771.13;6055373;23;20154;-84
2022/10/26 07:04:01;;;;;;;6.77;4.43;;;;;;;10.64;100.00;99786.53;6050071;23;20198;-83
2022/10/26 07:06:29;;;;;;;12.23;5.77;;;;;;;10.74;100.00;99788.75;6050801;23;20194;-83
2022/10/26 07:08:57;;;;;;;6.70;4.80;;;;;;;10.70;100.00;99784.88;6050897;23;20188;-84
2022/10/26 07:11:24;;;;;;;10.60;5.70;;;;;;;10.83;100.00;99782.09;6071967;23;20165;-84
2022/10/26 07:13:51;;;;;;;7.70;5.37;;;;;;;10.93;100.00;99788.63;6045476;23;20165;-83
2022/10/26 07:16:17;;;;;;;9.77;5.50;;;;;;;11.06;100.00;99785.00;6044513;23;20173;-85
2022/10/26 07:18:44;;;;;;;8.40;5.40;;;;;;;11.21;100.00;99780.13;6044031;23;20165;-84
2022/10/26 07:21:11;;;;;;;11.30;6.40;;;;;;;11.32;100.00;99779.44;6044402;23;20220;-83
2022/10/26 07:23:37;;;;;;;9.93;5.60;;;;;;;11.37;100.00;99782.28;6069373;23;20172;-85
2022/10/26 07:26:04;;;;;;;8.30;5.63;;;;;;;11.48;100.00;99783.38;6043441;23;20177;-85
2022/10/26 07:28:31;;;;;;;10.63;6.97;;;;;;;11.59;100.00;99787.22;6068878;23;20165;-85
2022/10/26 07:30:57;;;;;;;11.97;7.87;;;;;;;11.77;100.00;99774.66;6020038;23;20486;-87
2022/10/26 07:33:24;;;;;;;10.53;7.43;;;;;;;11.98;100.00;99780.63;6068645;23;20189;-85
2022/10/26 07:35:51;;;;;;;10.23;7.67;;;;;;;12.06;100.00;99781.13;6069043;23;20171;-85
2022/10/26 07:38:18;;;;;;;9.40;7.50;;;;;;;12.15;100.00;99795.06;6068945;23;20165;-86
2022/10/26 07:40:45;;;;;;;10.60;8.23;;;;;;;12.20;100.00;99806.78;6044060;23;20169;-86
2022/10/26 07:43:11;;;;;;;10.37;7.77;;;;;;;12.18;100.00;99802.66;6067230;23;20200;-88
2022/10/26 07:45:39;;;;;;;10.03;7.93;;;;;;;12.25;100.00;99804.25;6068674;23;20165;-86
2022/10/26 07:48:06;;;;;;;10.50;8.20;;;;;;;12.38;100.00;99802.41;6068559;23;20220;-87
2022/10/26 07:50:32;;;;;;;10.93;8.40;;;;;;;12.46;100.00;99802.13;6068285;23;20165;-88
2022/10/26 07:52:59;;;;;;;10.97;8.47;;;;;;;12.44;100.00;99799.66;6043333;23;20641;-89
2022/10/26 07:55:26;;;;;;;9.80;8.23;;;;;;;12.49;100.00;99815.91;6043434;23;20194;-88
2022/10/26 07:57:53;;;;;;;9.33;8.33;;;;;;;12.44;100.00;99806.88;6068613;23;20172;-90
2022/10/26 08:00:21;;;;;;;9.80;8.43;;;;;;;12.43;100.00;99807.94;6043781;23;20166;-86
2022/10/26 08:02:48;;;;;;;9.87;8.00;;;;;;;12.48;100.00;99800.84;6018836;23;20225;-88
2022/10/26 08:05:14;;;;;;;8.57;7.50;;;;;;;12.48;100.00;99795.47;6065719;23;20241;-87
2022/10/26 08:07:42;;;;;;;9.57;7.63;;;;;;;12.50;100.00;99798.75;6066070;23;20207;-86
2022/10/26 08:10:10;;;;;;;8.37;7.23;;;;;;;12.53;100.00;99786.72;6039867;23;20215;-84
2022/10/26 08:12:36;;;;;;;8.80;7.60;;;;;;;12.71;100.00;99781.28;6040376;23;20209;-86
2022/10/26 08:15:03;;;;;;;8.67;7.77;;;;;;;12.83;100.00;99800.16;6066173;23;20226;-87
2022/10/26 08:17:30;;;;;;;10.63;8.27;;;;;;;12.83;100.00;99792.88;6017496;23;20219;-87
2022/10/26 08:19:57;;;;;;;10.47;8.60;;;;;;;12.90;100.00;99801.66;6066035;23;20217;-87
2022/10/26 08:22:24;;;;;;;10.37;7.83;;;;;;;13.09;100.00;99805.91;6040467;23;20207;-85
2022/10/26 08:24:51;;;;;;;10.33;8.13;;;;;;;13.13;100.00;99812.50;6017473;23;20205;-85
2022/10/26 08:27:17;;;;;;;11.57;8.30;;;;;;;13.24;100.00;99810.88;6066043;23;20215;-87
2022/10/26 08:29:44;;;;;;;8.83;7.70;;;;;;;13.17;100.00;99819.06;6017216;23;20222;-87
2022/10/26 08:32:10;;;;;;;9.53;8.03;;;;;;;13.33;100.00;99819.44;6040669;23;20294;-88
2022/10/26 08:34:37;;;;;;;10.90;7.83;;;;;;;13.43;100.00;99822.38;6066210;23;20215;-88
2022/10/26 08:37:03;;;;;;;10.37;7.60;;;;;;;13.52;100.00;99827.19;6064911;23;20208;-85
2022/10/26 08:39:30;;;;;;;8.43;7.37;;;;;;;13.67;100.00;99827.50;6065967;23;20215;-88
2022/10/26 08:42:02;;;;;;;8.10;6.97;;;;;;;13.81;100.00;99819.22;6039512;23;20229;-87
2022/10/26 08:44:39;;;;;;;9.83;7.33;;;;;;;14.07;100.00;99818.69;6040810;23;20290;-89
2022/10/26 08:47:17;;;;;;;7.57;6.17;;;;;;;14.21;100.00;99821.94;6064614;23;20217;-85
2022/10/26 08:49:53;;;;;;;9.83;6.20;;;;;;;14.32;100.00;99818.41;6042537;23;20193;-87
2022/10/26 08:52:25;;;;;;;9.03;7.70;;;;;;;14.43;100.00;99814.84;6065748;23;20215;-87
2022/10/26 08:54:54;;;;;;;8.10;7.30;;;;;;;14.52;100.00;99821.50;6015766;23;20207;-88
2022/10/26 08:57:26;;;;;;;10.00;7.50;;;;;;;14.61;100.00;99828.13;6040906;23;20941;-86
2022/10/26 08:59:59;;;;;;;10.30;8.23;;;;;;;14.64;100.00;99829.56;6041679;23;20200;-86
2022/10/26 09:02:26;;;;;;;9.10;7.00;;;;;;;14.63;100.00;99823.34;6040213;23;20230;-87
2022/10/26 09:04:53;;;;;;;7.67;6.87;;;;;;;14.75;100.00;99832.19;6040647;23;20217;-86
2022/10/26 09:07:51;;;;;;;6.70;6.00;;;;;;;14.83;100.00;99834.50;6035337;23;20261;-88
2022/10/26 09:10:45;;;;;;;6.10;5.43;;;;;;;14.95;100.00;99840.66;6002226;23;20287;-87
2022/10/26 09:13:41;;;;;;;7.70;5.90;;;;;;;15.03;100.00;99842.13;6037077;23;20536;-86
2022/10/26 09:16:44;;;;;;;7.67;6.13;;;;;;;15.12;100.00;99845.25;6035464;23;20689;-86
2022/10/26 09:19:29;;;;;;;6.93;5.87;;;;;;;15.17;100.00;99856.94;6037150;23;20209;-85
2022/10/26 09:22:06;;;;;;;8.73;6.23;;;;;;;15.25;100.00;99861.16;6036968;23;20229;-86
2022/10/26 09:24:37;;;;;;;7.67;6.13;;;;;;;15.31;100.00;99855.56;6012133;23;20714;-87
2022/10/26 09:27:10;;;;;;;8.47;5.90;;;;;;;15.37;100.00;99867.28;6035618;23;20209;-86
2022/10/26 09:29:42;;;;;;;6.83;5.47;;;;;;;15.40;100.00;99867.59;6035493;23;20217;-86
2022/10/26 09:32:44;;;;;;;6.97;5.30;;;;;;;15.44;100.00;99863.34;6035758;23;20190;-87
2022/10/26 09:35:24;;;;;;;7.77;6.73;;;;;;;15.44;100.00;99870.66;6035267;23;20213;-88
2022/10/26 09:37:54;;;;;;;9.00;6.27;;;;;;;15.47;100.00;99877.44;6035853;23;20717;-87
2022/10/26 09:40:26;;;;;;;11.30;6.60;;;;;;;15.49;100.00;99878.00;6035115;23;20209;-86
2022/10/26 09:43:04;;;;;;;8.73;6.90;;;;;;;15.46;100.00;99886.56;6035504;23;20289;-86
2022/10/26 09:45:37;;;;;;;10.03;7.03;;;;;;;15.48;100.00;99882.59;6037509;23;20284;-86
2022/10/26 09:48:14;;;;;;;9.67;7.50;;;;;;;15.42;100.00;99878.16;6035526;23;20297;-85
2022/10/26 09:50:45;;;;;;;9.70;7.77;;;;;;;15.39;100.00;99875.97;6037199;23;20550;-86
2022/10/26 09:53:12;;;;;;;10.33;8.03;;;;;;;15.44;100.00;99879.53;6035455;23;20213;-86
2022/10/26 09:55:42;;;;;;;12.30;8.20;;;;;;;15.48;100.00;99876.38;6035466;23;20218;-87
2022/10/26 09:58:14;;;;;;;12.97;8.23;;;;;;;15.47;100.00;99880.94;6035144;23;20272;-87
2022/10/26 10:00:41;;;;;;;11.93;8.53;;;;;;;15.38;100.00;99868.91;6037444;23;20265;-86
2022/10/26 10:03:39;;;;;;;13.17;8.73;;;;;;;15.50;100.00;99872.34;6035523;23;20236;-87
2022/10/26 10:06:16;;;;;;;11.30;8.47;;;;;;;15.65;100.00;99879.91;6037162;23;20703;-86
2022/10/26 10:08:42;;;;;;;14.67;10.03;;;;;;;15.78;100.00;99882.25;6035791;23;20209;-86
2022/10/26 10:11:12;;;;;;;11.97;9.03;;;;;;;15.67;100.00;99875.09;6037163;23;20216;-85
2022/10/26 10:13:43;;;;;;;16.87;10.87;;;;;;;15.63;100.00;99879.34;6011966;23;20224;-86
2022/10/26 10:16:22;;;;;;;15.53;10.77;;;;;;;15.49;100.00;99883.41;6038615;23;20234;-87
2022/10/26 10:18:54;;;;;;;14.80;10.90;;;;;;;15.33;100.00;99866.13;6038871;23;20240;-87
2022/10/26 10:21:35;;;;;;;12.53;9.10;;;;;;;15.27;100.00;99878.72;6013898;23;20237;-86
2022/10/26 10:24:20;;;;;;;13.43;9.47;;;;;;;15.31;100.00;99873.63;6037046;23;20221;-86
2022/10/26 10:27:15;;;;;;;13.17;10.40;;;;;;;15.33;100.00;99868.84;6037408;23;20213;-86
2022/10/26 10:29:45;;;;;;;13.37;9.70;;;;;;;15.41;100.00;99868.41;6037397;23;20214;-86
2022/10/26 10:32:14;;;;;;;14.47;9.93;;;;;;;15.58;100.00;99871.16;6036303;23;20210;-88
2022/10/26 10:34:41;;;;;;;13.10;9.70;;;;;;;15.70;100.00;99864.59;6036691;23;20201;-86
2022/10/26 10:37:22;;;;;;;12.60;9.87;;;;;;;15.90;100.00;99863.28;6013598;23;20285;-87
2022/10/26 10:39:49;;;;;;;14.47;12.23;;;;;;;15.91;100.00;99857.59;6038507;23;20210;-85
2022/10/26 10:42:28;;;;;;;15.33;12.30;;;;;;;15.90;100.00;99861.38;6013148;23;20221;-84
2022/10/26 10:44:56;;;;;;;15.03;10.97;;;;;;;15.77;100.00;99854.44;6037270;23;20244;-86
2022/10/26 10:47:31;;;;;;;14.33;9.97;;;;;;;15.82;100.00;99850.97;6037182;23;20209;-86
2022/10/26 10:50:05;;;;;;;13.77;10.30;;;;;;;15.82;100.00;99850.97;6036972;23;20292;-86
2022/10/26 10:52:35;;;;;;;15.50;10.50;;;;;;;15.83;100.00;99845.34;6036430;23;20297;-86
2022/10/26 10:55:14;;;;;;;14.17;9.53;;;;;;;15.90;100.00;99857.88;6037125;23;20232;-88
2022/10/26 10:58:02;;;;;;;15.47;10.10;;;;;;;15.89;100.00;99856.22;6038149;23;20240;-86
2022/10/26 11:00:33;;;;;;;15.60;11.17;;;;;;;15.90;100.00;99861.38;6012533;23;20843;-86
2022/10/26 11:03:38;;;;;;;15.93;11.57;;;;;;;15.61;100.00;99866.09;6038647;23;20241;-87
2022/10/26 11:06:22;;;;;;;15.00;11.27;;;;;;;15.48;100.00;99870.97;6031681;23;20217;-86
2022/10/26 11:09:02;;;;;;;15.90;11.43;;;;;;;15.47;100.00;99877.44;6036420;23;20227;-87
2022/10/26 11:11:45;;;;;;;15.23;11.93;;;;;;;15.31;100.00;99871.75;6010513;23;20237;-85
2022/10/26 11:14:23;;;;;;;16.60;12.43;;;;;;;15.23;100.00;99866.78;6011294;23;20217;-87
2022/10/26 11:17:15;;;;;;;15.47;12.13;;;;;;;15.35;100.00;99870.22;6032934;23;20216;-86
2022/10/26 11:20:03;;;;;;;16.33;12.83;;;;;;;15.23;100.00;99869.47;6018709;23;20234;-87
2022/10/26 11:22:35;;;;;;;16.87;12.77;;;;;;;15.37;100.00;99867.28;6013139;23;20209;-90
2022/10/26 11:25:06;;;;;;;18.10;12.80;;;;;;;15.28;100.00;99869.56;6037132;23;20213;-88
2022/10/26 11:27:42;;;;;;;18.17;14.47;;;;;;;15.09;100.00;99872.72;6013578;23;20270;-90
2022/10/26 11:30:16;;;;;;;14.80;13.03;;;;;;;15.15;100.00;99877.16;6036657;23;20820;-90
2022/10/26 11:32:47;;;;;;;17.67;13.80;;;;;;;15.56;100.00;99886.78;6037433;23;20233;-90
2022/10/26 11:35:34;;;;;;;17.00;14.07;;;;;;;15.65;100.00;99879.91;6037163;23;20235;-87
2022/10/26 11:38:13;;;;;;;18.00;14.73;;;;;;;15.62;100.00;99886.63;6035964;23;20213;-83
2022/10/26 11:41:01;;;;;;;16.47;13.80;;;;;;;15.60;100.00;99891.44;6014997;23;20209;-87
2022/10/26 11:43:39;;;;;;;14.90;13.40;;;;;;;15.54;100.00;99888.94;6036923;23;20209;-87
2022/10/26 11:46:21;;;;;;;16.70;14.03;;;;;;;15.52;100.00;99883.75;6012324;23;20209;-86
2022/10/26 11:49:12;;;;;;;17.83;14.43;;;;;;;15.21;100.00;99890.47;6036857;23;20229;-87
2022/10/26 11:51:43;;;;;;;15.70;13.40;;;;;;;15.51;100.00;99886.69;6037920;23;20210;-87
2022/10/26 11:54:32;;;;;;;15.10;13.40;;;;;;;15.73;100.00;99890.28;6036392;23;20220;-90
2022/10/26 11:57:00;;;;;;;14.20;12.77;;;;;;;15.95;100.00;99895.78;6013333;23;20233;-86
2022/10/26 11:59:29;;;;;;;14.10;12.70;;;;;;;16.29;100.00;99900.00;6013041;23;20214;-86
2022/10/26 12:02:21;;;;;;;16.30;13.27;;;;;;;16.52;100.00;99899.78;6013868;23;20234;-87
2022/10/26 12:04:55;;;;;;;14.60;13.07;;;;;;;16.68;100.00;99893.53;6037714;23;20242;-87
2022/10/26 12:07:28;;;;;;;15.37;13.57;;;;;;;16.78;100.00;99892.00;6039792;23;20757;-85
2022/10/26 12:09:55;;;;;;;15.27;13.20;;;;;;;16.84;100.00;99878.28;6017802;23;20237;-86
2022/10/26 12:12:34;;;;;;;14.40;12.90;;;;;;;16.97;100.00;99877.88;6040912;23;20204;-88
2022/10/26 12:15:05;;;;;;;14.63;12.83;;;;;;;17.05;100.00;99880.13;6066453;23;20209;-87
2022/10/26 12:17:45;;;;;;;15.20;13.67;;;;;;;17.19;100.00;99888.66;6041682;23;20259;-86
2022/10/26 12:20:12;;;;;;;14.50;12.87;;;;;;;17.26;100.00;99883.03;6017224;23;20236;-86
2022/10/26 12:22:39;;;;;;;16.30;12.97;;;;;;;17.33;100.00;99889.03;6040903;23;20608;-87
2022/10/26 12:25:11;;;;;;;14.07;12.03;;;;;;;17.39;100.00;99886.13;6040293;23;20265;-86
2022/10/26 12:27:40;;;;;;;13.87;12.17;;;;;;;17.47;100.00;99882.94;6063491;23;20213;-85
2022/10/26 12:30:16;;;;;;;14.23;12.50;;;;;;;17.21;100.00;99881.09;6061633;23;20690;-86
2022/10/26 12:32:43;;;;;;;17.07;12.50;;;;;;;17.39;100.00;99883.41;6064448;23;20606;-86
2022/10/26 12:35:28;;;;;;;14.53;12.37;;;;;;;17.06;100.00;99878.22;6066381;23;20209;-87
2022/10/26 12:37:54;;;;;;;16.03;12.50;;;;;;;16.84;100.00;99872.88;6041093;23;20624;-86
2022/10/26 12:40:33;;;;;;;14.30;12.63;;;;;;;16.41;100.00;99884.50;6066422;23;20208;-89
2022/10/26 12:43:15;;;;;;;14.67;11.67;;;;;;;16.64;100.00;99878.88;6041464;23;20204;-87
2022/10/26 12:45:43;;;;;;;13.70;11.50;;;;;;;16.65;100.00;99888.63;6040777;23;20209;-87
2022/10/26 12:48:44;;;;;;;14.80;12.13;;;;;;;16.18;100.00;99887.44;6017250;23;20213;-87
2022/10/26 12:51:37;;;;;;;13.73;11.67;;;;;;;15.99;100.00;99896.91;6065164;23;20212;-87
2022/10/26 12:54:28;;;;;;;13.50;12.03;;;;;;;15.95;100.00;99896.59;6066464;23;20709;-89
2022/10/26 12:57:16;;;;;;;12.40;11.10;;;;;;;16.06;100.00;99892.94;6018778;23;20245;-89
2022/10/26 12:59:47;;;;;;;13.53;11.30;;;;;;;16.04;100.00;99897.81;5995854;23;20284;-87
2022/10/26 13:02:38;;;;;;;12.30;10.93;;;;;;;16.11;100.00;99887.63;6067305;23;20296;-86
2022/10/26 13:05:36;;;;;;;12.30;10.97;;;;;;;15.39;100.00;99895.69;5995538;23;20223;-86
2022/10/26 13:08:06;;;;;;;12.57;10.33;;;;;;;15.80;100.00;99886.38;6059939;23;20284;-89
2022/10/26 13:10:33;;;;;;;12.47;10.50;;;;;;;16.01;100.00;99892.06;6042633;23;20208;-88
2022/10/26 13:13:01;;;;;;;11.03;9.80;;;;;;;16.11;100.00;99889.50;6041965;23;20213;-88
2022/10/26 13:15:37;;;;;;;13.27;9.90;;;;;;;16.26;100.00;99893.22;6042107;23;20213;-87
2022/10/26 13:18:18;;;;;;;14.73;10.33;;;;;;;16.02;100.00;99893.69;6041763;23;20216;-87
2022/10/26 13:20:52;;;;;;;14.00;10.07;;;;;;;16.01;100.00;99895.56;6042855;23;20224;-88
2022/10/26 13:23:25;;;;;;;12.67;10.37;;;;;;;15.99;100.00;99897.72;6067401;23;20688;-88
2022/10/26 13:26:11;;;;;;;13.57;10.10;;;;;;;15.94;100.00;99900.34;6018697;23;20283;-87
2022/10/26 13:28:38;;;;;;;13.97;9.97;;;;;;;16.07;100.00;99907.28;6018979;23;20204;-88
2022/10/26 13:31:09;;;;;;;16.57;10.13;;;;;;;16.04;100.00;99907.78;6067315;23;20209;-87
2022/10/26 13:33:37;;;;;;;10.70;9.57;;;;;;;15.96;100.00;99905.53;6067306;23;20220;-86
2022/10/26 13:36:40;;;;;;;10.13;8.87;;;;;;;15.94;100.00;99903.06;6039653;23;20209;-86
2022/10/26 13:39:15;;;;;;;10.43;9.37;;;;;;;15.89;100.00;99912.97;5999345;23;20530;-86
2022/10/26 13:41:44;;;;;;;9.83;8.83;;;;;;;15.90;100.00;99910.03;6042383;23;20208;-86
2022/10/26 13:44:16;;;;;;;9.43;8.43;;;;;;;15.69;100.00;99900.78;6041061;23;20216;-87
2022/10/26 13:46:45;;;;;;;9.27;8.07;;;;;;;15.59;100.00;99906.00;6043369;23;20189;-87
2022/10/26 13:49:22;;;;;;;9.97;7.97;;;;;;;15.61;100.00;99911.16;6040963;23;20205;-86
2022/10/26 13:51:50;;;;;;;10.17;8.50;;;;;;;15.58;100.00;99909.78;6044029;23;20209;-87
2022/10/26 13:54:29;;;;;;;9.50;8.17;;;;;;;15.43;100.00;99906.81;6068159;23;20217;-87
2022/10/26 13:57:19;;;;;;;10.83;8.60;;;;;;;15.49;100.00;99913.13;6068812;23;20208;-87
2022/10/26 13:59:46;;;;;;;9.63;8.60;;;;;;;15.41;100.00;99919.72;6043862;23;20219;-86
2022/10/26 14:02:18;;;;;;;9.50;8.03;;;;;;;15.37;100.00;99919.38;6068063;23;20685;-86
2022/10/26 14:04:46;;;;;;;10.40;8.90;;;;;;;15.37;100.00;99914.00;6043115;23;20288;-87
2022/10/26 14:07:25;;;;;;;11.43;8.50;;;;;;;15.28;100.00;99915.44;6043265;23;20219;-87
2022/10/26 14:09:54;;;;;;;10.37;9.03;;;;;;;15.06;100.00;99911.00;6043608;23;20714;-86
2022/10/26 14:12:22;;;;;;;12.00;9.70;;;;;;;14.94;100.00;99911.03;6068274;23;20217;-87
2022/10/26 14:14:49;;;;;;;10.10;9.00;;;;;;;14.82;100.00;99918.38;6043662;23;20204;-88
2022/10/26 14:17:19;;;;;;;10.20;9.00;;;;;;;14.85;100.00;99923.25;6020015;23;20244;-87
2022/10/26 14:19:45;;;;;;;10.60;9.43;;;;;;;14.85;100.00;99923.25;6068604;23;20216;-86
2022/10/26 14:22:23;;;;;;;10.73;9.73;;;;;;;14.81;100.00;99920.25;6019083;23;20208;-86
2022/10/26 14:24:58;;;;;;;10.57;9.53;;;;;;;14.85;100.00;99918.69;6043572;23;20229;-86
2022/10/26 14:27:30;;;;;;;10.43;9.43;;;;;;;14.68;100.00;99923.22;6067638;23;20197;-86
2022/10/26 14:29:58;;;;;;;10.50;9.50;;;;;;;14.57;100.00;99920.53;6043226;23;20209;-87
2022/10/26 14:32:44;;;;;;;10.17;9.17;;;;;;;14.42;100.00;99927.25;6023232;23;20213;-86
2022/10/26 14:35:14;;;;;;;10.83;9.40;;;;;;;14.47;100.00;99921.16;6068638;23;20209;-88
2022/10/26 14:37:48;;;;;;;10.57;9.57;;;;;;;14.35;100.00;99918.44;6043094;23;20256;-87
2022/10/26 14:40:18;;;;;;;11.30;10.10;;;;;;;14.35;100.00;99931.94;5996980;23;20650;-87
2022/10/26 14:42:49;;;;;;;11.30;10.17;;;;;;;14.30;100.00;99929.13;6042717;23;20211;-87
2022/10/26 14:45:29;;;;;;;10.40;9.40;;;;;;;14.24;100.00;99921.16;6019903;23;20201;-87
2022/10/26 14:48:31;;;;;;;11.27;10.17;;;;;;;14.22;100.00;99924.09;6046607;23;20217;-87
2022/10/26 14:51:15;;;;;;;10.77;9.67;;;;;;;14.22;100.00;99936.75;6043149;23;20264;-88
2022/10/26 14:53:48;;;;;;;11.23;10.13;;;;;;;14.19;100.00;99931.81;6068522;23;20315;-87
2022/10/26 14:56:22;;;;;;;11.97;10.37;;;;;;;14.12;100.00;99934.66;6020239;23;20539;-86
2022/10/26 14:58:50;;;;;;;11.23;10.13;;;;;;;14.25;100.00;99930.88;6068524;23;20205;-87